sensor_id;sensor_type;location;lat;lon;timestamp;P1;durP1;ratioP1;P2;durP2;ratioP2
6852;SDS011;3465;42.144;24.722;2023-04-15T00:01:11;7.33;;;4.47;;
6852;SDS011;3465;42.144;24.722;2023-04-15T00:03:37;9.73;;;4.10;;
6852;SDS011;3465;42.144;24.722;2023-04-15T00:06:02;8.33;;;4.37;;
6852;SDS011;3465;42.144;24.722;2023-04-15T00:08:28;10.20;;;4.43;;
6852;SDS011;3465;42.144;24.722;2023-04-15T00:10:54;7.43;;;4.23;;
6852;SDS011;3465;42.144;24.722;2023-04-15T00:13:19;7.43;;;4.60;;
6852;SDS011;3465;42.144;24.722;2023-04-15T00:15:45;11.03;;;5.23;;
6852;SDS011;3465;42.144;24.722;2023-04-15T00:18:10;13.10;;;4.93;;
6852;SDS011;3465;42.144;24.722;2023-04-15T00:20:35;7.43;;;4.90;;
6852;SDS011;3465;42.144;24.722;2023-04-15T00:23:01;8.53;;;5.43;;
6852;SDS011;3465;42.144;24.722;2023-04-15T00:25:28;9.67;;;5.10;;
6852;SDS011;3465;42.144;24.722;2023-04-15T00:27:53;6.23;;;4.70;;
6852;SDS011;3465;42.144;24.722;2023-04-15T00:30:19;8.63;;;4.90;;
6852;SDS011;3465;42.144;24.722;2023-04-15T00:32:44;7.73;;;4.90;;
6852;SDS011;3465;42.144;24.722;2023-04-15T00:35:10;6.90;;;4.53;;
6852;SDS011;3465;42.144;24.722;2023-04-15T00:37:36;6.57;;;4.30;;
6852;SDS011;3465;42.144;24.722;2023-04-15T00:40:02;9.83;;;4.80;;
6852;SDS011;3465;42.144;24.722;2023-04-15T00:42:30;7.57;;;4.90;;
6852;SDS011;3465;42.144;24.722;2023-04-15T00:44:55;8.30;;;4.93;;
6852;SDS011;3465;42.144;24.722;2023-04-15T00:47:21;7.43;;;5.23;;
6852;SDS011;3465;42.144;24.722;2023-04-15T00:49:47;8.80;;;4.80;;
6852;SDS011;3465;42.144;24.722;2023-04-15T00:52:12;9.80;;;5.40;;
6852;SDS011;3465;42.144;24.722;2023-04-15T00:54:38;7.40;;;5.10;;
6852;SDS011;3465;42.144;24.722;2023-04-15T00:57:04;8.00;;;4.90;;
6852;SDS011;3465;42.144;24.722;2023-04-15T00:59:32;12.80;;;5.20;;
6852;SDS011;3465;42.144;24.722;2023-04-15T01:01:58;10.80;;;5.03;;
6852;SDS011;3465;42.144;24.722;2023-04-15T01:04:23;10.03;;;4.60;;
6852;SDS011;3465;42.144;24.722;2023-04-15T01:06:49;8.27;;;4.90;;
6852;SDS011;3465;42.144;24.722;2023-04-15T01:09:15;7.50;;;4.70;;
6852;SDS011;3465;42.144;24.722;2023-04-15T01:11:41;7.97;;;4.77;;
6852;SDS011;3465;42.144;24.722;2023-04-15T01:14:07;7.93;;;4.80;;
6852;SDS011;3465;42.144;24.722;2023-04-15T01:16:35;7.43;;;4.70;;
6852;SDS011;3465;42.144;24.722;2023-04-15T01:19:03;7.37;;;4.73;;
6852;SDS011;3465;42.144;24.722;2023-04-15T01:21:34;5.77;;;4.27;;
6852;SDS011;3465;42.144;24.722;2023-04-15T01:24:01;6.90;;;4.47;;
6852;SDS011;3465;42.144;24.722;2023-04-15T01:26:30;6.10;;;4.10;;
6852;SDS011;3465;42.144;24.722;2023-04-15T01:28:55;8.13;;;3.80;;
6852;SDS011;3465;42.144;24.722;2023-04-15T01:31:21;7.67;;;4.20;;
6852;SDS011;3465;42.144;24.722;2023-04-15T01:33:46;5.60;;;3.77;;
6852;SDS011;3465;42.144;24.722;2023-04-15T01:36:12;7.00;;;4.50;;
6852;SDS011;3465;42.144;24.722;2023-04-15T01:38:38;7.13;;;4.30;;
6852;SDS011;3465;42.144;24.722;2023-04-15T01:41:03;5.20;;;3.90;;
6852;SDS011;3465;42.144;24.722;2023-04-15T01:43:31;7.70;;;4.10;;
6852;SDS011;3465;42.144;24.722;2023-04-15T01:45:57;8.10;;;4.40;;
6852;SDS011;3465;42.144;24.722;2023-04-15T01:48:22;5.27;;;3.87;;
6852;SDS011;3465;42.144;24.722;2023-04-15T01:50:47;7.27;;;4.03;;
6852;SDS011;3465;42.144;24.722;2023-04-15T01:53:13;5.73;;;3.80;;
6852;SDS011;3465;42.144;24.722;2023-04-15T01:55:39;6.07;;;4.17;;
6852;SDS011;3465;42.144;24.722;2023-04-15T01:58:05;4.20;;;3.30;;
6852;SDS011;3465;42.144;24.722;2023-04-15T02:00:31;4.63;;;3.30;;
6852;SDS011;3465;42.144;24.722;2023-04-15T02:02:57;6.20;;;3.30;;
6852;SDS011;3465;42.144;24.722;2023-04-15T02:05:23;6.30;;;3.60;;
6852;SDS011;3465;42.144;24.722;2023-04-15T02:07:49;5.13;;;3.50;;
6852;SDS011;3465;42.144;24.722;2023-04-15T02:10:14;7.43;;;3.40;;
6852;SDS011;3465;42.144;24.722;2023-04-15T02:12:40;5.40;;;2.90;;
6852;SDS011;3465;42.144;24.722;2023-04-15T02:15:06;5.57;;;3.00;;
6852;SDS011;3465;42.144;24.722;2023-04-15T02:17:33;3.53;;;2.90;;
6852;SDS011;3465;42.144;24.722;2023-04-15T02:19:59;3.83;;;2.77;;
6852;SDS011;3465;42.144;24.722;2023-04-15T02:22:25;4.73;;;2.93;;
6852;SDS011;3465;42.144;24.722;2023-04-15T02:24:50;7.87;;;3.20;;
6852;SDS011;3465;42.144;24.722;2023-04-15T02:27:16;7.23;;;3.03;;
6852;SDS011;3465;42.144;24.722;2023-04-15T02:29:43;4.77;;;3.37;;
6852;SDS011;3465;42.144;24.722;2023-04-15T02:32:12;5.07;;;3.30;;
6852;SDS011;3465;42.144;24.722;2023-04-15T02:34:38;4.03;;;3.17;;
6852;SDS011;3465;42.144;24.722;2023-04-15T02:37:06;4.70;;;2.93;;
6852;SDS011;3465;42.144;24.722;2023-04-15T02:39:35;5.00;;;3.17;;
6852;SDS011;3465;42.144;24.722;2023-04-15T02:42:02;6.10;;;3.33;;
6852;SDS011;3465;42.144;24.722;2023-04-15T02:44:29;4.07;;;2.87;;
6852;SDS011;3465;42.144;24.722;2023-04-15T02:46:55;4.97;;;2.90;;
6852;SDS011;3465;42.144;24.722;2023-04-15T02:49:20;8.33;;;3.10;;
6852;SDS011;3465;42.144;24.722;2023-04-15T02:51:47;6.10;;;3.07;;
6852;SDS011;3465;42.144;24.722;2023-04-15T02:54:14;3.97;;;2.60;;
6852;SDS011;3465;42.144;24.722;2023-04-15T02:56:41;4.33;;;2.80;;
6852;SDS011;3465;42.144;24.722;2023-04-15T02:59:06;8.37;;;3.07;;
6852;SDS011;3465;42.144;24.722;2023-04-15T03:01:34;5.10;;;3.03;;
6852;SDS011;3465;42.144;24.722;2023-04-15T03:04:00;4.70;;;2.60;;
6852;SDS011;3465;42.144;24.722;2023-04-15T03:06:25;3.93;;;2.70;;
6852;SDS011;3465;42.144;24.722;2023-04-15T03:08:51;4.80;;;2.53;;
6852;SDS011;3465;42.144;24.722;2023-04-15T03:11:16;4.43;;;2.60;;
6852;SDS011;3465;42.144;24.722;2023-04-15T03:13:42;4.40;;;2.90;;
6852;SDS011;3465;42.144;24.722;2023-04-15T03:16:08;5.07;;;2.93;;
6852;SDS011;3465;42.144;24.722;2023-04-15T03:18:34;7.70;;;2.97;;
6852;SDS011;3465;42.144;24.722;2023-04-15T03:21:00;5.47;;;2.80;;
6852;SDS011;3465;42.144;24.722;2023-04-15T03:23:26;6.37;;;3.17;;
6852;SDS011;3465;42.144;24.722;2023-04-15T03:25:52;5.03;;;3.20;;
6852;SDS011;3465;42.144;24.722;2023-04-15T03:28:20;3.57;;;2.97;;
6852;SDS011;3465;42.144;24.722;2023-04-15T03:30:45;4.10;;;3.00;;
6852;SDS011;3465;42.144;24.722;2023-04-15T03:33:10;6.53;;;2.77;;
6852;SDS011;3465;42.144;24.722;2023-04-15T03:35:36;4.80;;;3.13;;
6852;SDS011;3465;42.144;24.722;2023-04-15T03:38:02;7.37;;;3.10;;
6852;SDS011;3465;42.144;24.722;2023-04-15T03:40:27;4.47;;;2.90;;
6852;SDS011;3465;42.144;24.722;2023-04-15T03:42:53;4.87;;;2.80;;
6852;SDS011;3465;42.144;24.722;2023-04-15T03:45:18;4.93;;;2.87;;
6852;SDS011;3465;42.144;24.722;2023-04-15T03:47:43;4.83;;;3.00;;
6852;SDS011;3465;42.144;24.722;2023-04-15T03:50:09;7.13;;;3.20;;
6852;SDS011;3465;42.144;24.722;2023-04-15T03:52:35;6.40;;;3.27;;
6852;SDS011;3465;42.144;24.722;2023-04-15T03:55:00;6.53;;;2.60;;
6852;SDS011;3465;42.144;24.722;2023-04-15T03:57:26;5.13;;;2.70;;
6852;SDS011;3465;42.144;24.722;2023-04-15T03:59:51;6.50;;;3.00;;
6852;SDS011;3465;42.144;24.722;2023-04-15T04:02:17;4.60;;;2.70;;
6852;SDS011;3465;42.144;24.722;2023-04-15T04:04:42;6.07;;;2.90;;
6852;SDS011;3465;42.144;24.722;2023-04-15T04:07:08;4.23;;;2.60;;
6852;SDS011;3465;42.144;24.722;2023-04-15T04:09:39;3.80;;;2.87;;
6852;SDS011;3465;42.144;24.722;2023-04-15T04:12:06;4.40;;;2.60;;
6852;SDS011;3465;42.144;24.722;2023-04-15T04:14:31;6.90;;;2.73;;
6852;SDS011;3465;42.144;24.722;2023-04-15T04:16:57;5.70;;;2.70;;
6852;SDS011;3465;42.144;24.722;2023-04-15T04:19:22;7.57;;;2.97;;
6852;SDS011;3465;42.144;24.722;2023-04-15T04:21:47;6.07;;;2.83;;
6852;SDS011;3465;42.144;24.722;2023-04-15T04:24:13;6.00;;;3.10;;
6852;SDS011;3465;42.144;24.722;2023-04-15T04:26:38;7.03;;;3.00;;
6852;SDS011;3465;42.144;24.722;2023-04-15T04:29:04;5.40;;;3.00;;
6852;SDS011;3465;42.144;24.722;2023-04-15T04:31:29;8.17;;;3.07;;
6852;SDS011;3465;42.144;24.722;2023-04-15T04:33:54;7.07;;;2.57;;
6852;SDS011;3465;42.144;24.722;2023-04-15T04:36:20;7.20;;;2.60;;
6852;SDS011;3465;42.144;24.722;2023-04-15T04:38:45;3.20;;;2.40;;
6852;SDS011;3465;42.144;24.722;2023-04-15T04:41:11;4.67;;;2.30;;
6852;SDS011;3465;42.144;24.722;2023-04-15T04:43:36;5.53;;;2.60;;
6852;SDS011;3465;42.144;24.722;2023-04-15T04:46:01;4.50;;;2.23;;
6852;SDS011;3465;42.144;24.722;2023-04-15T04:48:27;5.93;;;3.00;;
6852;SDS011;3465;42.144;24.722;2023-04-15T04:50:52;6.77;;;2.73;;
6852;SDS011;3465;42.144;24.722;2023-04-15T04:53:18;4.53;;;2.43;;
6852;SDS011;3465;42.144;24.722;2023-04-15T04:55:43;7.40;;;3.13;;
6852;SDS011;3465;42.144;24.722;2023-04-15T04:58:09;4.47;;;2.60;;
6852;SDS011;3465;42.144;24.722;2023-04-15T05:00:35;7.50;;;2.70;;
6852;SDS011;3465;42.144;24.722;2023-04-15T05:03:02;7.90;;;2.83;;
6852;SDS011;3465;42.144;24.722;2023-04-15T05:05:27;7.20;;;2.60;;
6852;SDS011;3465;42.144;24.722;2023-04-15T05:07:52;6.07;;;2.70;;
6852;SDS011;3465;42.144;24.722;2023-04-15T05:10:18;4.53;;;2.80;;
6852;SDS011;3465;42.144;24.722;2023-04-15T05:12:43;8.03;;;3.03;;
6852;SDS011;3465;42.144;24.722;2023-04-15T05:15:09;6.23;;;2.47;;
6852;SDS011;3465;42.144;24.722;2023-04-15T05:17:34;7.53;;;3.10;;
6852;SDS011;3465;42.144;24.722;2023-04-15T05:20:00;6.17;;;2.60;;
6852;SDS011;3465;42.144;24.722;2023-04-15T05:22:26;3.37;;;2.30;;
6852;SDS011;3465;42.144;24.722;2023-04-15T05:24:52;4.67;;;2.50;;
6852;SDS011;3465;42.144;24.722;2023-04-15T05:27:17;6.57;;;3.10;;
6852;SDS011;3465;42.144;24.722;2023-04-15T05:29:47;5.78;;;2.60;;
6852;SDS011;3465;42.144;24.722;2023-04-15T05:32:12;5.15;;;2.35;;
6852;SDS011;3465;42.144;24.722;2023-04-15T05:34:38;3.35;;;2.30;;
6852;SDS011;3465;42.144;24.722;2023-04-15T05:37:03;4.57;;;2.63;;
6852;SDS011;3465;42.144;24.722;2023-04-15T05:39:29;5.68;;;2.28;;
6852;SDS011;3465;42.144;24.722;2023-04-15T05:41:56;2.30;;;1.98;;
6852;SDS011;3465;42.144;24.722;2023-04-15T05:44:22;6.05;;;2.10;;
6852;SDS011;3465;42.144;24.722;2023-04-15T05:46:47;2.72;;;2.10;;
6852;SDS011;3465;42.144;24.722;2023-04-15T05:49:13;4.78;;;1.80;;
6852;SDS011;3465;42.144;24.722;2023-04-15T05:51:38;9.18;;;1.85;;
6852;SDS011;3465;42.144;24.722;2023-04-15T05:54:03;4.93;;;2.35;;
6852;SDS011;3465;42.144;24.722;2023-04-15T05:56:29;6.95;;;2.00;;
6852;SDS011;3465;42.144;24.722;2023-04-15T05:58:55;3.17;;;1.98;;
6852;SDS011;3465;42.144;24.722;2023-04-15T06:01:21;4.55;;;2.00;;
6852;SDS011;3465;42.144;24.722;2023-04-15T06:03:46;3.42;;;1.80;;
6852;SDS011;3465;42.144;24.722;2023-04-15T06:06:12;4.30;;;2.00;;
6852;SDS011;3465;42.144;24.722;2023-04-15T06:08:39;3.38;;;1.88;;
6852;SDS011;3465;42.144;24.722;2023-04-15T06:11:04;2.70;;;1.80;;
6852;SDS011;3465;42.144;24.722;2023-04-15T06:13:30;5.93;;;1.90;;
6852;SDS011;3465;42.144;24.722;2023-04-15T06:15:55;3.75;;;1.85;;
6852;SDS011;3465;42.144;24.722;2023-04-15T06:18:21;2.88;;;1.60;;
6852;SDS011;3465;42.144;24.722;2023-04-15T06:20:49;2.75;;;1.67;;
6852;SDS011;3465;42.144;24.722;2023-04-15T06:23:15;3.47;;;1.50;;
6852;SDS011;3465;42.144;24.722;2023-04-15T06:25:41;6.15;;;1.85;;
6852;SDS011;3465;42.144;24.722;2023-04-15T06:28:06;3.38;;;2.10;;
6852;SDS011;3465;42.144;24.722;2023-04-15T06:30:31;3.83;;;1.90;;
6852;SDS011;3465;42.144;24.722;2023-04-15T06:32:57;7.13;;;1.80;;
6852;SDS011;3465;42.144;24.722;2023-04-15T06:35:22;17.60;;;3.03;;
6852;SDS011;3465;42.144;24.722;2023-04-15T06:37:48;5.50;;;1.95;;
6852;SDS011;3465;42.144;24.722;2023-04-15T06:40:13;3.55;;;1.95;;
6852;SDS011;3465;42.144;24.722;2023-04-15T06:42:39;3.15;;;1.70;;
6852;SDS011;3465;42.144;24.722;2023-04-15T06:45:04;9.57;;;1.90;;
6852;SDS011;3465;42.144;24.722;2023-04-15T06:47:33;4.05;;;2.33;;
6852;SDS011;3465;42.144;24.722;2023-04-15T06:50:02;6.13;;;2.22;;
6852;SDS011;3465;42.144;24.722;2023-04-15T06:52:28;3.40;;;2.00;;
6852;SDS011;3465;42.144;24.722;2023-04-15T06:54:53;3.70;;;2.08;;
6852;SDS011;3465;42.144;24.722;2023-04-15T06:57:18;5.88;;;1.80;;
6852;SDS011;3465;42.144;24.722;2023-04-15T06:59:44;7.20;;;1.92;;
6852;SDS011;3465;42.144;24.722;2023-04-15T07:02:10;2.58;;;1.92;;
6852;SDS011;3465;42.144;24.722;2023-04-15T07:04:37;5.32;;;2.05;;
6852;SDS011;3465;42.144;24.722;2023-04-15T07:07:03;5.22;;;2.42;;
6852;SDS011;3465;42.144;24.722;2023-04-15T07:09:30;4.53;;;2.45;;
6852;SDS011;3465;42.144;24.722;2023-04-15T07:11:56;10.23;;;3.33;;
6852;SDS011;3465;42.144;24.722;2023-04-15T07:14:21;8.40;;;3.60;;
6852;SDS011;3465;42.144;24.722;2023-04-15T07:16:47;6.15;;;3.20;;
6852;SDS011;3465;42.144;24.722;2023-04-15T07:19:12;7.07;;;3.40;;
6852;SDS011;3465;42.144;24.722;2023-04-15T07:21:38;5.82;;;3.42;;
6852;SDS011;3465;42.144;24.722;2023-04-15T07:24:03;5.55;;;3.47;;
6852;SDS011;3465;42.144;24.722;2023-04-15T07:26:29;5.90;;;3.42;;
6852;SDS011;3465;42.144;24.722;2023-04-15T07:28:54;8.30;;;3.55;;
6852;SDS011;3465;42.144;24.722;2023-04-15T07:31:20;5.13;;;3.25;;
6852;SDS011;3465;42.144;24.722;2023-04-15T07:33:46;5.70;;;3.40;;
6852;SDS011;3465;42.144;24.722;2023-04-15T07:36:11;7.50;;;3.60;;
6852;SDS011;3465;42.144;24.722;2023-04-15T07:38:37;5.05;;;3.10;;
6852;SDS011;3465;42.144;24.722;2023-04-15T07:41:03;6.10;;;3.03;;
6852;SDS011;3465;42.144;24.722;2023-04-15T07:43:28;5.82;;;2.83;;
6852;SDS011;3465;42.144;24.722;2023-04-15T07:45:54;4.07;;;2.40;;
6852;SDS011;3465;42.144;24.722;2023-04-15T07:48:19;5.03;;;2.70;;
6852;SDS011;3465;42.144;24.722;2023-04-15T07:50:45;4.32;;;3.00;;
6852;SDS011;3465;42.144;24.722;2023-04-15T07:53:10;5.30;;;3.15;;
6852;SDS011;3465;42.144;24.722;2023-04-15T07:55:36;6.07;;;3.08;;
6852;SDS011;3465;42.144;24.722;2023-04-15T07:58:01;5.85;;;3.10;;
6852;SDS011;3465;42.144;24.722;2023-04-15T08:00:26;6.18;;;2.72;;
6852;SDS011;3465;42.144;24.722;2023-04-15T08:02:52;5.65;;;2.45;;
6852;SDS011;3465;42.144;24.722;2023-04-15T08:05:18;5.70;;;2.85;;
6852;SDS011;3465;42.144;24.722;2023-04-15T08:07:43;5.22;;;2.60;;
6852;SDS011;3465;42.144;24.722;2023-04-15T08:10:10;6.07;;;3.00;;
6852;SDS011;3465;42.144;24.722;2023-04-15T08:12:36;5.22;;;2.83;;
6852;SDS011;3465;42.144;24.722;2023-04-15T08:15:01;5.82;;;2.60;;
6852;SDS011;3465;42.144;24.722;2023-04-15T08:17:27;6.53;;;2.65;;
6852;SDS011;3465;42.144;24.722;2023-04-15T08:19:52;4.22;;;2.60;;
6852;SDS011;3465;42.144;24.722;2023-04-15T08:22:18;6.03;;;2.38;;
6852;SDS011;3465;42.144;24.722;2023-04-15T08:24:43;6.32;;;2.42;;
6852;SDS011;3465;42.144;24.722;2023-04-15T08:27:09;4.28;;;2.33;;
6852;SDS011;3465;42.144;24.722;2023-04-15T08:29:34;5.45;;;2.25;;
6852;SDS011;3465;42.144;24.722;2023-04-15T08:32:00;6.05;;;2.30;;
6852;SDS011;3465;42.144;24.722;2023-04-15T08:34:25;5.65;;;2.63;;
6852;SDS011;3465;42.144;24.722;2023-04-15T08:36:51;4.05;;;2.13;;
6852;SDS011;3465;42.144;24.722;2023-04-15T08:39:17;4.75;;;2.30;;
6852;SDS011;3465;42.144;24.722;2023-04-15T08:41:46;7.50;;;2.65;;
6852;SDS011;3465;42.144;24.722;2023-04-15T08:44:15;4.93;;;2.58;;
6852;SDS011;3465;42.144;24.722;2023-04-15T08:46:41;4.75;;;2.30;;
6852;SDS011;3465;42.144;24.722;2023-04-15T08:49:11;7.55;;;2.63;;
6852;SDS011;3465;42.144;24.722;2023-04-15T08:51:37;4.35;;;2.10;;
6852;SDS011;3465;42.144;24.722;2023-04-15T08:54:04;6.68;;;2.55;;
6852;SDS011;3465;42.144;24.722;2023-04-15T08:56:30;5.05;;;2.28;;
6852;SDS011;3465;42.144;24.722;2023-04-15T08:58:57;4.82;;;2.13;;
6852;SDS011;3465;42.144;24.722;2023-04-15T09:01:23;6.65;;;2.28;;
6852;SDS011;3465;42.144;24.722;2023-04-15T09:03:49;5.60;;;2.47;;
6852;SDS011;3465;42.144;24.722;2023-04-15T09:06:15;3.47;;;2.20;;
6852;SDS011;3465;42.144;24.722;2023-04-15T09:08:41;5.07;;;2.50;;
6852;SDS011;3465;42.144;24.722;2023-04-15T09:11:07;6.85;;;2.47;;
6852;SDS011;3465;42.144;24.722;2023-04-15T09:13:32;4.85;;;2.10;;
6852;SDS011;3465;42.144;24.722;2023-04-15T09:16:00;7.55;;;2.63;;
6852;SDS011;3465;42.144;24.722;2023-04-15T09:18:32;3.25;;;2.10;;
6852;SDS011;3465;42.144;24.722;2023-04-15T09:21:12;3.72;;;2.17;;
6852;SDS011;3465;42.144;24.722;2023-04-15T09:23:39;6.03;;;2.63;;
6852;SDS011;3465;42.144;24.722;2023-04-15T09:26:17;4.95;;;2.50;;
6852;SDS011;3465;42.144;24.722;2023-04-15T09:28:43;6.43;;;2.30;;
6852;SDS011;3465;42.144;24.722;2023-04-15T09:31:08;5.40;;;2.20;;
6852;SDS011;3465;42.144;24.722;2023-04-15T09:33:34;6.05;;;1.92;;
6852;SDS011;3465;42.144;24.722;2023-04-15T09:36:03;7.55;;;2.60;;
6852;SDS011;3465;42.144;24.722;2023-04-15T09:38:30;5.32;;;2.13;;
6852;SDS011;3465;42.144;24.722;2023-04-15T09:40:56;5.82;;;2.42;;
6852;SDS011;3465;42.144;24.722;2023-04-15T09:43:22;6.82;;;2.70;;
6852;SDS011;3465;42.144;24.722;2023-04-15T09:46:05;5.38;;;2.40;;
6852;SDS011;3465;42.144;24.722;2023-04-15T09:48:31;3.20;;;2.30;;
6852;SDS011;3465;42.144;24.722;2023-04-15T09:50:57;5.97;;;2.53;;
6852;SDS011;3465;42.144;24.722;2023-04-15T09:53:23;5.13;;;2.70;;
6852;SDS011;3465;42.144;24.722;2023-04-15T09:55:51;6.35;;;2.50;;
6852;SDS011;3465;42.144;24.722;2023-04-15T09:58:22;6.20;;;3.00;;
6852;SDS011;3465;42.144;24.722;2023-04-15T10:00:48;7.72;;;2.28;;
6852;SDS011;3465;42.144;24.722;2023-04-15T10:03:18;6.60;;;2.45;;
6852;SDS011;3465;42.144;24.722;2023-04-15T10:05:46;5.53;;;2.38;;
6852;SDS011;3465;42.144;24.722;2023-04-15T10:08:12;4.95;;;2.50;;
6852;SDS011;3465;42.144;24.722;2023-04-15T10:10:39;6.15;;;2.30;;
6852;SDS011;3465;42.144;24.722;2023-04-15T10:13:05;4.70;;;2.20;;
6852;SDS011;3465;42.144;24.722;2023-04-15T10:15:31;6.25;;;2.30;;
6852;SDS011;3465;42.144;24.722;2023-04-15T10:17:57;5.75;;;2.25;;
6852;SDS011;3465;42.144;24.722;2023-04-15T10:20:24;6.03;;;2.15;;
6852;SDS011;3465;42.144;24.722;2023-04-15T10:22:51;3.70;;;2.15;;
6852;SDS011;3465;42.144;24.722;2023-04-15T10:25:17;6.53;;;2.58;;
6852;SDS011;3465;42.144;24.722;2023-04-15T10:27:43;6.80;;;2.03;;
6852;SDS011;3465;42.144;24.722;2023-04-15T10:30:09;5.88;;;1.80;;
6852;SDS011;3465;42.144;24.722;2023-04-15T10:32:38;3.75;;;1.77;;
6852;SDS011;3465;42.144;24.722;2023-04-15T10:35:05;3.50;;;1.85;;
6852;SDS011;3465;42.144;24.722;2023-04-15T10:37:35;7.22;;;1.75;;
6852;SDS011;3465;42.144;24.722;2023-04-15T10:42:53;6.30;;;1.80;;
6852;SDS011;3465;42.144;24.722;2023-04-15T10:45:20;3.28;;;2.13;;
6852;SDS011;3465;42.144;24.722;2023-04-15T10:47:45;4.60;;;2.10;;
6852;SDS011;3465;42.144;24.722;2023-04-15T10:50:15;3.50;;;2.00;;
6852;SDS011;3465;42.144;24.722;2023-04-15T10:52:43;4.22;;;2.00;;
6852;SDS011;3465;42.144;24.722;2023-04-15T10:55:17;3.95;;;2.08;;
6852;SDS011;3465;42.144;24.722;2023-04-15T10:57:45;6.68;;;3.22;;
6852;SDS011;3465;42.144;24.722;2023-04-15T11:00:11;4.47;;;2.90;;
6852;SDS011;3465;42.144;24.722;2023-04-15T11:08:03;8.80;;;2.90;;
6852;SDS011;3465;42.144;24.722;2023-04-15T11:12:58;9.63;;;3.17;;
6852;SDS011;3465;42.144;24.722;2023-04-15T11:15:46;4.90;;;3.22;;
6852;SDS011;3465;42.144;24.722;2023-04-15T11:20:51;5.70;;;3.28;;
6852;SDS011;3465;42.144;24.722;2023-04-15T11:25:53;7.00;;;3.47;;
6852;SDS011;3465;42.144;24.722;2023-04-15T11:28:20;6.20;;;3.17;;
6852;SDS011;3465;42.144;24.722;2023-04-15T11:30:50;4.50;;;3.30;;
6852;SDS011;3465;42.144;24.722;2023-04-15T11:33:15;6.30;;;3.35;;
6852;SDS011;3465;42.144;24.722;2023-04-15T11:35:42;4.18;;;2.90;;
6852;SDS011;3465;42.144;24.722;2023-04-15T11:38:08;4.28;;;3.22;;
6852;SDS011;3465;42.144;24.722;2023-04-15T11:40:36;4.97;;;3.72;;
6852;SDS011;3465;42.144;24.722;2023-04-15T11:43:06;5.60;;;3.63;;
6852;SDS011;3465;42.144;24.722;2023-04-15T11:45:35;7.47;;;3.30;;
6852;SDS011;3465;42.144;24.722;2023-04-15T11:48:05;7.80;;;3.33;;
6852;SDS011;3465;42.144;24.722;2023-04-15T11:50:31;8.75;;;3.30;;
6852;SDS011;3465;42.144;24.722;2023-04-15T11:53:00;3.95;;;2.95;;
6852;SDS011;3465;42.144;24.722;2023-04-15T11:55:27;5.72;;;3.28;;
6852;SDS011;3465;42.144;24.722;2023-04-15T12:00:32;7.30;;;3.55;;
6852;SDS011;3465;42.144;24.722;2023-04-15T12:03:11;6.55;;;3.30;;
6852;SDS011;3465;42.144;24.722;2023-04-15T12:08:51;6.05;;;3.47;;
6852;SDS011;3465;42.144;24.722;2023-04-15T12:16:27;5.85;;;3.20;;
6852;SDS011;3465;42.144;24.722;2023-04-15T12:18:53;6.07;;;3.10;;
6852;SDS011;3465;42.144;24.722;2023-04-15T12:21:24;7.07;;;3.30;;
6852;SDS011;3465;42.144;24.722;2023-04-15T12:23:51;5.55;;;2.65;;
6852;SDS011;3465;42.144;24.722;2023-04-15T12:26:24;4.85;;;2.33;;
6852;SDS011;3465;42.144;24.722;2023-04-15T12:29:10;6.63;;;2.72;;
6852;SDS011;3465;42.144;24.722;2023-04-15T12:31:45;3.65;;;2.10;;
6852;SDS011;3465;42.144;24.722;2023-04-15T12:34:13;4.78;;;1.92;;
6852;SDS011;3465;42.144;24.722;2023-04-15T12:36:39;5.13;;;2.03;;
6852;SDS011;3465;42.144;24.722;2023-04-15T12:39:04;4.30;;;1.88;;
6852;SDS011;3465;42.144;24.722;2023-04-15T12:41:33;6.47;;;1.83;;
6852;SDS011;3465;42.144;24.722;2023-04-15T12:43:59;4.13;;;1.85;;
6852;SDS011;3465;42.144;24.722;2023-04-15T12:46:24;4.95;;;1.73;;
6852;SDS011;3465;42.144;24.722;2023-04-15T12:48:51;3.70;;;1.60;;
6852;SDS011;3465;42.144;24.722;2023-04-15T12:51:17;3.28;;;1.83;;
6852;SDS011;3465;42.144;24.722;2023-04-15T12:53:43;5.93;;;1.98;;
6852;SDS011;3465;42.144;24.722;2023-04-15T12:56:08;6.47;;;2.00;;
6852;SDS011;3465;42.144;24.722;2023-04-15T12:58:34;5.25;;;2.00;;
6852;SDS011;3465;42.144;24.722;2023-04-15T13:01:00;5.00;;;2.20;;
6852;SDS011;3465;42.144;24.722;2023-04-15T13:03:25;3.17;;;1.48;;
6852;SDS011;3465;42.144;24.722;2023-04-15T13:05:54;3.90;;;1.80;;
6852;SDS011;3465;42.144;24.722;2023-04-15T13:08:19;3.35;;;1.92;;
6852;SDS011;3465;42.144;24.722;2023-04-15T13:10:45;5.75;;;1.77;;
6852;SDS011;3465;42.144;24.722;2023-04-15T13:13:10;4.22;;;1.90;;
6852;SDS011;3465;42.144;24.722;2023-04-15T13:15:36;3.50;;;1.60;;
6852;SDS011;3465;42.144;24.722;2023-04-15T13:18:02;4.30;;;1.90;;
6852;SDS011;3465;42.144;24.722;2023-04-15T13:20:29;5.75;;;2.10;;
6852;SDS011;3465;42.144;24.722;2023-04-15T13:22:54;3.92;;;2.05;;
6852;SDS011;3465;42.144;24.722;2023-04-15T13:25:20;3.83;;;1.70;;
6852;SDS011;3465;42.144;24.722;2023-04-15T13:27:45;3.40;;;1.73;;
6852;SDS011;3465;42.144;24.722;2023-04-15T13:30:11;4.32;;;1.75;;
6852;SDS011;3465;42.144;24.722;2023-04-15T13:32:37;4.55;;;1.95;;
6852;SDS011;3465;42.144;24.722;2023-04-15T13:35:02;4.68;;;2.05;;
6852;SDS011;3465;42.144;24.722;2023-04-15T13:37:29;4.07;;;1.70;;
6852;SDS011;3465;42.144;24.722;2023-04-15T13:39:55;3.22;;;1.80;;
6852;SDS011;3465;42.144;24.722;2023-04-15T13:42:23;4.68;;;1.60;;
6852;SDS011;3465;42.144;24.722;2023-04-15T13:44:49;4.07;;;1.90;;
6852;SDS011;3465;42.144;24.722;2023-04-15T13:47:15;4.53;;;1.98;;
6852;SDS011;3465;42.144;24.722;2023-04-15T13:49:41;3.17;;;1.70;;
6852;SDS011;3465;42.144;24.722;2023-04-15T13:52:07;6.65;;;1.90;;
6852;SDS011;3465;42.144;24.722;2023-04-15T13:54:33;5.47;;;1.70;;
6852;SDS011;3465;42.144;24.722;2023-04-15T13:56:58;6.18;;;1.85;;
6852;SDS011;3465;42.144;24.722;2023-04-15T13:59:24;4.00;;;1.67;;
6852;SDS011;3465;42.144;24.722;2023-04-15T14:01:49;5.13;;;1.90;;
6852;SDS011;3465;42.144;24.722;2023-04-15T14:04:14;5.72;;;1.92;;
6852;SDS011;3465;42.144;24.722;2023-04-15T14:06:40;4.57;;;2.00;;
6852;SDS011;3465;42.144;24.722;2023-04-15T14:09:05;5.68;;;2.03;;
6852;SDS011;3465;42.144;24.722;2023-04-15T14:11:31;4.40;;;1.70;;
6852;SDS011;3465;42.144;24.722;2023-04-15T14:13:59;4.10;;;2.00;;
6852;SDS011;3465;42.144;24.722;2023-04-15T14:16:24;5.97;;;2.05;;
6852;SDS011;3465;42.144;24.722;2023-04-15T14:18:50;4.22;;;1.65;;
6852;SDS011;3465;42.144;24.722;2023-04-15T14:21:15;4.40;;;1.70;;
6852;SDS011;3465;42.144;24.722;2023-04-15T14:23:40;6.85;;;1.88;;
6852;SDS011;3465;42.144;24.722;2023-04-15T14:26:06;5.75;;;2.13;;
6852;SDS011;3465;42.144;24.722;2023-04-15T14:28:32;5.20;;;1.88;;
6852;SDS011;3465;42.144;24.722;2023-04-15T14:30:57;6.72;;;2.20;;
6852;SDS011;3465;42.144;24.722;2023-04-15T14:33:22;4.00;;;1.75;;
6852;SDS011;3465;42.144;24.722;2023-04-15T14:35:48;5.63;;;1.90;;
6852;SDS011;3465;42.144;24.722;2023-04-15T14:38:15;3.50;;;1.90;;
6852;SDS011;3465;42.144;24.722;2023-04-15T14:40:40;5.68;;;1.58;;
6852;SDS011;3465;42.144;24.722;2023-04-15T14:43:06;7.57;;;2.03;;
6852;SDS011;3465;42.144;24.722;2023-04-15T14:45:31;4.40;;;1.88;;
6852;SDS011;3465;42.144;24.722;2023-04-15T14:47:57;7.05;;;2.03;;
6852;SDS011;3465;42.144;24.722;2023-04-15T14:50:23;3.90;;;1.90;;
6852;SDS011;3465;42.144;24.722;2023-04-15T14:52:48;5.32;;;2.00;;
6852;SDS011;3465;42.144;24.722;2023-04-15T14:55:14;4.25;;;1.90;;
6852;SDS011;3465;42.144;24.722;2023-04-15T14:57:40;7.03;;;2.03;;
6852;SDS011;3465;42.144;24.722;2023-04-15T15:00:06;4.97;;;1.90;;
6852;SDS011;3465;42.144;24.722;2023-04-15T15:02:33;3.05;;;1.73;;
6852;SDS011;3465;42.144;24.722;2023-04-15T15:05:00;4.90;;;1.90;;
6852;SDS011;3465;42.144;24.722;2023-04-15T15:07:26;4.20;;;1.80;;
6852;SDS011;3465;42.144;24.722;2023-04-15T15:09:51;7.90;;;2.25;;
6852;SDS011;3465;42.144;24.722;2023-04-15T15:12:17;5.43;;;1.98;;
6852;SDS011;3465;42.144;24.722;2023-04-15T15:14:43;5.40;;;2.20;;
6852;SDS011;3465;42.144;24.722;2023-04-15T15:17:08;7.35;;;2.00;;
6852;SDS011;3465;42.144;24.722;2023-04-15T15:19:34;9.60;;;2.20;;
6852;SDS011;3465;42.144;24.722;2023-04-15T15:21:59;4.88;;;2.20;;